sensor_id;sensor_type;location;lat;lon;timestamp;pressure;altitude;pressure_sealevel;temperature;humidity
68634;BME280;55625;47.072;22.192;2022-09-27T00:00:29;98636.50;;;14.53;100.00
68634;BME280;55625;47.072;22.192;2022-09-27T00:02:55;98634.44;;;14.53;100.00
68634;BME280;55625;47.072;22.192;2022-09-27T00:05:21;98644.28;;;14.52;100.00
68634;BME280;55625;47.072;22.192;2022-09-27T00:07:47;98638.56;;;14.52;100.00
68634;BME280;55625;47.072;22.192;2022-09-27T00:10:13;98638.56;;;14.52;100.00
68634;BME280;55625;47.072;22.192;2022-09-27T00:12:40;98629.22;;;14.52;100.00
68634;BME280;55625;47.072;22.192;2022-09-27T00:15:08;98627.94;;;14.53;100.00
68634;BME280;55625;47.072;22.192;2022-09-27T00:17:36;98628.72;;;14.53;100.00
68634;BME280;55625;47.072;22.192;2022-09-27T00:20:04;98629.50;;;14.54;100.00
68634;BME280;55625;47.072;22.192;2022-09-27T00:22:32;98627.44;;;14.54;100.00
68634;BME280;55625;47.072;22.192;2022-09-27T00:24:58;98620.44;;;14.55;100.00
68634;BME280;55625;47.072;22.192;2022-09-27T00:27:26;98622.50;;;14.55;100.00
68634;BME280;55625;47.072;22.192;2022-09-27T00:29:53;98616.78;;;14.55;100.00
68634;BME280;55625;47.072;22.192;2022-09-27T00:32:19;98616.00;;;14.54;100.00
68634;BME280;55625;47.072;22.192;2022-09-27T00:34:45;98607.94;;;14.53;100.00
68634;BME280;55625;47.072;22.192;2022-09-27T00:37:11;98614.44;;;14.53;100.00
68634;BME280;55625;47.072;22.192;2022-09-27T00:39:37;98597.03;;;14.51;100.00
68634;BME280;55625;47.072;22.192;2022-09-27T00:42:10;98593.91;;;14.49;100.00
68634;BME280;55625;47.072;22.192;2022-09-27T00:47:25;98587.38;;;14.43;100.00
68634;BME280;55625;47.072;22.192;2022-09-27T00:50:18;98581.59;;;14.38;100.00
68634;BME280;55625;47.072;22.192;2022-09-27T00:53:28;98584.41;;;14.32;100.00
68634;BME280;55625;47.072;22.192;2022-09-27T00:56:02;98563.59;;;14.26;100.00
68634;BME280;55625;47.072;22.192;2022-09-27T00:58:43;98558.13;;;14.22;100.00
68634;BME280;55625;47.072;22.192;2022-09-27T01:01:11;98569.00;;;14.18;100.00
68634;BME280;55625;47.072;22.192;2022-09-27T01:06:21;98575.88;;;14.06;100.00
68634;BME280;55625;47.072;22.192;2022-09-27T01:08:48;98560.28;;;14.02;100.00
68634;BME280;55625;47.072;22.192;2022-09-27T01:35:06;98547.28;;;13.69;100.00
68634;BME280;55625;47.072;22.192;2022-09-27T01:40:58;98547.28;;;13.69;100.00
68634;BME280;55625;47.072;22.192;2022-09-27T01:43:51;98543.66;;;13.68;100.00
68634;BME280;55625;47.072;22.192;2022-09-27T01:46:30;98543.66;;;13.68;100.00
68634;BME280;55625;47.072;22.192;2022-09-27T01:49:04;98537.47;;;13.70;100.00
68634;BME280;55625;47.072;22.192;2022-09-27T01:51:46;98528.91;;;13.70;100.00
68634;BME280;55625;47.072;22.192;2022-09-27T01:54:21;98530.19;;;13.69;100.00
68634;BME280;55625;47.072;22.192;2022-09-27T01:56:52;98534.06;;;13.66;100.00
68634;BME280;55625;47.072;22.192;2022-09-27T02:02:23;98526.47;;;13.57;100.00
68634;BME280;55625;47.072;22.192;2022-09-27T02:04:55;98519.44;;;13.53;100.00
68634;BME280;55625;47.072;22.192;2022-09-27T02:07:31;98518.88;;;13.49;100.00
68634;BME280;55625;47.072;22.192;2022-09-27T02:12:37;98528.41;;;13.46;100.00
68634;BME280;55625;47.072;22.192;2022-09-27T02:15:09;98527.63;;;13.45;100.00
68634;BME280;55625;47.072;22.192;2022-09-27T02:20:39;98527.13;;;13.47;100.00
68634;BME280;55625;47.072;22.192;2022-09-27T02:23:37;98517.31;;;13.48;100.00
68634;BME280;55625;47.072;22.192;2022-09-27T02:26:26;98521.22;;;13.50;100.00
68634;BME280;55625;47.072;22.192;2022-09-27T02:29:23;98518.38;;;13.50;100.00
68634;BME280;55625;47.072;22.192;2022-09-27T02:31:52;98518.38;;;13.50;100.00
68634;BME280;55625;47.072;22.192;2022-09-27T02:34:24;98509.31;;;13.52;100.00
68634;BME280;55625;47.072;22.192;2022-09-27T02:36:51;98513.72;;;13.53;100.00
68634;BME280;55625;47.072;22.192;2022-09-27T02:39:18;98515.28;;;13.54;100.00
68634;BME280;55625;47.072;22.192;2022-09-27T02:41:44;98513.50;;;13.56;100.00
68634;BME280;55625;47.072;22.192;2022-09-27T02:44:13;98511.69;;;13.59;100.00
68634;BME280;55625;47.072;22.192;2022-09-27T02:55:34;98516.41;;;13.62;100.00
68634;BME280;55625;47.072;22.192;2022-09-27T02:58:29;98508.63;;;13.62;100.00
68634;BME280;55625;47.072;22.192;2022-09-27T03:03:55;98494.59;;;13.59;100.00
68634;BME280;55625;47.072;22.192;2022-09-27T03:06:23;98490.97;;;13.58;100.00
68634;BME280;55625;47.072;22.192;2022-09-27T03:08:50;98487.34;;;13.58;100.00
68634;BME280;55625;47.072;22.192;2022-09-27T03:11:16;98489.63;;;13.54;100.00
68634;BME280;55625;47.072;22.192;2022-09-27T03:13:43;98494.78;;;13.50;100.00
68634;BME280;55625;47.072;22.192;2022-09-27T03:16:09;98488.03;;;13.47;100.00
68634;BME280;55625;47.072;22.192;2022-09-27T03:18:36;98496.78;;;13.44;100.00
68634;BME280;55625;47.072;22.192;2022-09-27T03:21:02;98490.00;;;13.41;100.00
68634;BME280;55625;47.072;22.192;2022-09-27T03:23:28;98503.19;;;13.39;100.00
68634;BME280;55625;47.072;22.192;2022-09-27T03:25:54;98504.78;;;13.40;100.00
68634;BME280;55625;47.072;22.192;2022-09-27T03:28:20;98502.19;;;13.42;100.00
68634;BME280;55625;47.072;22.192;2022-09-27T03:30:46;98504.78;;;13.40;100.00
68634;BME280;55625;47.072;22.192;2022-09-27T03:33:13;98508.91;;;13.39;100.00
68634;BME280;55625;47.072;22.192;2022-09-27T03:35:40;98514.31;;;13.36;100.00
68634;BME280;55625;47.072;22.192;2022-09-27T03:38:07;98509.63;;;13.33;100.00
68634;BME280;55625;47.072;22.192;2022-09-27T03:40:34;98508.34;;;13.34;100.00
68634;BME280;55625;47.072;22.192;2022-09-27T03:43:01;98506.00;;;13.33;100.00
68634;BME280;55625;47.072;22.192;2022-09-27T03:45:27;98503.94;;;13.33;100.00
68634;BME280;55625;47.072;22.192;2022-09-27T03:47:53;98501.88;;;13.34;100.00
68634;BME280;55625;47.072;22.192;2022-09-27T03:50:19;98501.09;;;13.33;100.00
68634;BME280;55625;47.072;22.192;2022-09-27T03:52:45;98502.66;;;13.34;100.00
68634;BME280;55625;47.072;22.192;2022-09-27T03:55:12;98501.38;;;13.35;100.00
68634;BME280;55625;47.072;22.192;2022-09-27T03:57:38;98503.19;;;13.39;100.00
68634;BME280;55625;47.072;22.192;2022-09-27T04:00:09;98499.84;;;13.40;100.00
68634;BME280;55625;47.072;22.192;2022-09-27T04:02:35;98496.50;;;13.42;100.00
68634;BME280;55625;47.072;22.192;2022-09-27T04:05:01;98495.22;;;13.43;100.00
68634;BME280;55625;47.072;22.192;2022-09-27T04:07:26;98496.28;;;13.45;100.00
68634;BME280;55625;47.072;22.192;2022-09-27T04:09:52;98497.81;;;13.46;100.00
68634;BME280;55625;47.072;22.192;2022-09-27T04:12:18;98492.91;;;13.47;100.00
68634;BME280;55625;47.072;22.192;2022-09-27T04:14:44;98499.44;;;13.47;100.00
68634;BME280;55625;47.072;22.192;2022-09-27T04:17:10;98507.16;;;13.47;100.00
68634;BME280;55625;47.072;22.192;2022-09-27T04:19:36;98505.59;;;13.46;100.00
68634;BME280;55625;47.072;22.192;2022-09-27T04:22:02;98501.97;;;13.45;100.00
68634;BME280;55625;47.072;22.192;2022-09-27T04:24:28;98499.91;;;13.46;100.00
68634;BME280;55625;47.072;22.192;2022-09-27T04:26:54;98502.75;;;13.46;100.00
68634;BME280;55625;47.072;22.192;2022-09-27T04:29:21;98497.81;;;13.46;100.00
68634;BME280;55625;47.072;22.192;2022-09-27T04:31:47;98491.34;;;13.46;100.00
68634;BME280;55625;47.072;22.192;2022-09-27T04:34:13;98499.34;;;13.42;100.00
68634;BME280;55625;47.072;22.192;2022-09-27T04:36:39;98506.09;;;13.44;100.00
68634;BME280;55625;47.072;22.192;2022-09-27T04:39:07;98500.91;;;13.43;100.00
68634;BME280;55625;47.072;22.192;2022-09-27T04:41:33;98497.03;;;13.46;100.00
68634;BME280;55625;47.072;22.192;2022-09-27T04:44:01;98499.44;;;13.47;100.00
68634;BME280;55625;47.072;22.192;2022-09-27T04:46:28;98506.69;;;13.48;100.00
68634;BME280;55625;47.072;22.192;2022-09-27T04:49:01;98498.63;;;13.47;100.00
68634;BME280;55625;47.072;22.192;2022-09-27T04:51:27;98497.34;;;13.48;100.00
68634;BME280;55625;47.072;22.192;2022-09-27T04:53:54;98496.06;;;13.49;100.00
68634;BME280;55625;47.072;22.192;2022-09-27T04:56:20;98488.03;;;13.47;100.00
68634;BME280;55625;47.072;22.192;2022-09-27T04:58:46;98498.63;;;13.47;100.00
68634;BME280;55625;47.072;22.192;2022-09-27T05:01:12;98479.47;;;13.47;100.00
68634;BME280;55625;47.072;22.192;2022-09-27T05:03:38;98494.19;;;13.46;100.00
68634;BME280;55625;47.072;22.192;2022-09-27T05:06:04;98488.22;;;13.44;100.00
68634;BME280;55625;47.072;22.192;2022-09-27T05:08:30;98482.53;;;13.44;100.00
68634;BME280;55625;47.072;22.192;2022-09-27T05:10:56;98476.63;;;13.47;100.00
68634;BME280;55625;47.072;22.192;2022-09-27T05:13:22;98482.88;;;13.51;100.00
68634;BME280;55625;47.072;22.192;2022-09-27T05:15:48;98489.91;;;13.56;100.00
68634;BME280;55625;47.072;22.192;2022-09-27T05:18:14;98478.00;;;13.57;100.00
68634;BME280;55625;47.072;22.192;2022-09-27T05:20:42;98488.91;;;13.59;100.00
68634;BME280;55625;47.072;22.192;2022-09-27T05:23:09;98471.78;;;13.59;100.00
68634;BME280;55625;47.072;22.192;2022-09-27T05:25:35;98469.44;;;13.57;100.00
68634;BME280;55625;47.072;22.192;2022-09-27T05:28:01;98474.38;;;13.57;100.00
68634;BME280;55625;47.072;22.192;2022-09-27T05:30:27;98476.16;;;13.54;100.00
68634;BME280;55625;47.072;22.192;2022-09-27T05:32:53;98475.09;;;13.52;100.00
68634;BME280;55625;47.072;22.192;2022-09-27T05:35:20;98472.25;;;13.52;100.00
68634;BME280;55625;47.072;22.192;2022-09-27T05:37:57;98470.69;;;13.51;100.00
68634;BME280;55625;47.072;22.192;2022-09-27T05:40:25;98468.13;;;13.53;100.00
68634;BME280;55625;47.072;22.192;2022-09-27T05:42:52;98465.78;;;13.51;100.00
68634;BME280;55625;47.072;22.192;2022-09-27T05:45:20;98463.72;;;13.52;100.00
68634;BME280;55625;47.072;22.192;2022-09-27T05:47:57;98456.22;;;13.54;100.00
68634;BME280;55625;47.072;22.192;2022-09-27T05:50:25;98454.41;;;13.57;100.00
68634;BME280;55625;47.072;22.192;2022-09-27T05:52:52;98460.38;;;13.59;100.00
68634;BME280;55625;47.072;22.192;2022-09-27T05:55:19;98455.47;;;13.59;100.00
68634;BME280;55625;47.072;22.192;2022-09-27T05:58:00;98459.66;;;13.64;100.00
68634;BME280;55625;47.072;22.192;2022-09-27T06:00:27;98450.81;;;13.62;100.00
68634;BME280;55625;47.072;22.192;2022-09-27T06:03:02;98452.38;;;13.63;100.00
68634;BME280;55625;47.072;22.192;2022-09-27T06:05:30;98454.22;;;13.66;100.00
68634;BME280;55625;47.072;22.192;2022-09-27T06:08:02;98456.84;;;13.70;100.00
68634;BME280;55625;47.072;22.192;2022-09-27T06:10:30;98456.34;;;13.71;100.00
68634;BME280;55625;47.072;22.192;2022-09-27T06:13:10;98460.50;;;13.76;100.00
68634;BME280;55625;47.072;22.192;2022-09-27T06:15:38;98459.03;;;13.80;100.00
68634;BME280;55625;47.072;22.192;2022-09-27T06:18:09;98461.91;;;13.86;100.00
68634;BME280;55625;47.072;22.192;2022-09-27T06:20:37;98457.03;;;13.92;100.00
68634;BME280;55625;47.072;22.192;2022-09-27T06:23:09;98464.06;;;13.96;100.00
68634;BME280;55625;47.072;22.192;2022-09-27T06:25:36;98469.75;;;13.96;100.00
68634;BME280;55625;47.072;22.192;2022-09-27T06:28:03;98470.06;;;14.04;100.00
68634;BME280;55625;47.072;22.192;2022-09-27T06:30:30;98474.97;;;14.04;100.00
68634;BME280;55625;47.072;22.192;2022-09-27T06:33:01;98467.47;;;14.06;100.00
68634;BME280;55625;47.072;22.192;2022-09-27T06:35:28;98469.34;;;14.09;100.00
68634;BME280;55625;47.072;22.192;2022-09-27T06:37:56;98469.66;;;14.17;100.00
68634;BME280;55625;47.072;22.192;2022-09-27T06:40:22;98461.88;;;14.23;100.00
68634;BME280;55625;47.072;22.192;2022-09-27T06:42:52;98464.00;;;14.28;100.00
68634;BME280;55625;47.072;22.192;2022-09-27T06:45:19;98453.72;;;14.42;100.00
68634;BME280;55625;47.072;22.192;2022-09-27T06:47:45;98462.63;;;14.60;100.00
68634;BME280;55625;47.072;22.192;2022-09-27T06:50:11;98460.63;;;14.78;100.00
68634;BME280;55625;47.072;22.192;2022-09-27T06:52:37;98457.81;;;14.89;100.00
68634;BME280;55625;47.072;22.192;2022-09-27T06:55:04;98458.88;;;14.97;100.00
68634;BME280;55625;47.072;22.192;2022-09-27T06:57:30;98454.75;;;15.04;100.00
68634;BME280;55625;47.072;22.192;2022-09-27T07:00:19;98462.56;;;15.09;100.00
68634;BME280;55625;47.072;22.192;2022-09-27T07:02:48;98448.03;;;15.12;100.00
68634;BME280;55625;47.072;22.192;2022-09-27T07:05:16;98445.44;;;15.20;100.00
68634;BME280;55625;47.072;22.192;2022-09-27T07:07:42;98448.28;;;15.26;100.00
68634;BME280;55625;47.072;22.192;2022-09-27T07:10:09;98456.59;;;15.29;100.00
68634;BME280;55625;47.072;22.192;2022-09-27T07:12:36;98457.16;;;15.33;100.00
68634;BME280;55625;47.072;22.192;2022-09-27T07:15:03;98447.25;;;15.29;100.00
68634;BME280;55625;47.072;22.192;2022-09-27T07:17:29;98445.44;;;15.26;100.00
68634;BME280;55625;47.072;22.192;2022-09-27T07:19:55;98442.03;;;15.16;100.00
68634;BME280;55625;47.072;22.192;2022-09-27T07:22:22;98445.69;;;15.16;100.00
68634;BME280;55625;47.072;22.192;2022-09-27T07:24:48;98438.97;;;15.42;100.00
68634;BME280;55625;47.072;22.192;2022-09-27T07:27:14;98433.28;;;15.87;100.00
68634;BME280;55625;47.072;22.192;2022-09-27T07:29:40;98443.91;;;16.14;100.00
68634;BME280;55625;47.072;22.192;2022-09-27T07:32:06;98440.50;;;16.21;98.62
68634;BME280;55625;47.072;22.192;2022-09-27T07:34:33;98438.19;;;16.08;98.13
68634;BME280;55625;47.072;22.192;2022-09-27T07:36:59;98443.91;;;16.08;97.65
68634;BME280;55625;47.072;22.192;2022-09-27T07:39:26;98442.63;;;16.04;98.31
68634;BME280;55625;47.072;22.192;2022-09-27T07:41:52;98438.22;;;15.97;98.04
68634;BME280;55625;47.072;22.192;2022-09-27T07:44:18;98432.22;;;16.01;98.43
68634;BME280;55625;47.072;22.192;2022-09-27T07:46:44;98427.00;;;16.05;97.70
68634;BME280;55625;47.072;22.192;2022-09-27T07:49:10;98425.94;;;16.13;98.66
68634;BME280;55625;47.072;22.192;2022-09-27T07:51:36;98435.81;;;16.29;98.37
68634;BME280;55625;47.072;22.192;2022-09-27T07:54:02;98432.59;;;16.50;96.71
68634;BME280;55625;47.072;22.192;2022-09-27T07:56:28;98438.59;;;16.57;94.72
68634;BME280;55625;47.072;22.192;2022-09-27T07:58:54;98431.06;;;16.54;93.76
68634;BME280;55625;47.072;22.192;2022-09-27T08:01:20;98424.78;;;16.67;93.75
68634;BME280;55625;47.072;22.192;2022-09-27T08:03:46;98424.72;;;16.78;92.68
68634;BME280;55625;47.072;22.192;2022-09-27T08:06:12;98424.31;;;17.04;92.73
68634;BME280;55625;47.072;22.192;2022-09-27T08:08:38;98425.03;;;17.16;91.38
68634;BME280;55625;47.072;22.192;2022-09-27T08:11:15;98427.09;;;17.21;87.51
68634;BME280;55625;47.072;22.192;2022-09-27T08:13:42;98424.28;;;17.15;88.89
68634;BME280;55625;47.072;22.192;2022-09-27T08:16:08;98431.03;;;17.12;88.67
68634;BME280;55625;47.072;22.192;2022-09-27T08:18:36;98428.47;;;17.08;88.08
68634;BME280;55625;47.072;22.192;2022-09-27T08:21:02;98421.22;;;17.02;87.57
68634;BME280;55625;47.072;22.192;2022-09-27T08:23:29;98415.22;;;17.00;88.50
68634;BME280;55625;47.072;22.192;2022-09-27T08:25:56;98418.34;;;17.02;90.55
68634;BME280;55625;47.072;22.192;2022-09-27T08:28:25;98418.09;;;17.00;89.26
68634;BME280;55625;47.072;22.192;2022-09-27T08:30:52;98415.25;;;16.94;90.37
68634;BME280;55625;47.072;22.192;2022-09-27T08:33:18;98417.38;;;16.88;90.78
68634;BME280;55625;47.072;22.192;2022-09-27T08:35:44;98433.53;;;16.91;91.41
68634;BME280;55625;47.072;22.192;2022-09-27T08:38:10;98423.03;;;16.99;90.58
68634;BME280;55625;47.072;22.192;2022-09-27T08:46:52;98419.06;;;17.49;88.22
68634;BME280;55625;47.072;22.192;2022-09-27T08:49:32;98423.09;;;17.71;87.66
68634;BME280;55625;47.072;22.192;2022-09-27T08:52:05;98421.25;;;17.73;86.07
68634;BME280;55625;47.072;22.192;2022-09-27T08:54:34;98420.50;;;17.67;86.69
68634;BME280;55625;47.072;22.192;2022-09-27T08:57:09;98410.28;;;17.72;86.76
68634;BME280;55625;47.072;22.192;2022-09-27T08:59:47;98403.75;;;17.77;85.34
68634;BME280;55625;47.072;22.192;2022-09-27T09:02:20;98402.34;;;18.13;83.86
68634;BME280;55625;47.072;22.192;2022-09-27T09:05:11;98407.81;;;18.36;83.79
68634;BME280;55625;47.072;22.192;2022-09-27T09:22:33;98384.13;;;18.05;85.18
68634;BME280;55625;47.072;22.192;2022-09-27T09:25:06;98384.66;;;18.09;86.26
68634;BME280;55625;47.072;22.192;2022-09-27T09:33:36;98377.44;;;18.46;82.50
68634;BME280;55625;47.072;22.192;2022-09-27T09:38:44;98375.50;;;18.54;81.20
68634;BME280;55625;47.072;22.192;2022-09-27T09:41:21;98368.84;;;18.65;81.73
68634;BME280;55625;47.072;22.192;2022-09-27T09:44:09;98368.94;;;18.97;82.35
68634;BME280;55625;47.072;22.192;2022-09-27T09:46:44;98360.94;;;19.08;77.51
68634;BME280;55625;47.072;22.192;2022-09-27T09:49:29;98368.06;;;19.52;78.78
68634;BME280;55625;47.072;22.192;2022-09-27T09:52:10;98361.34;;;20.08;75.79
68634;BME280;55625;47.072;22.192;2022-09-27T09:54:53;98355.38;;;20.46;72.15
68634;BME280;55625;47.072;22.192;2022-09-27T09:57:33;98354.78;;;20.87;72.68
68634;BME280;55625;47.072;22.192;2022-09-27T10:00:15;98350.38;;;21.07;67.09
68634;BME280;55625;47.072;22.192;2022-09-27T10:02:46;98343.72;;;21.46;68.89
68634;BME280;55625;47.072;22.192;2022-09-27T10:05:18;98335.94;;;21.83;68.67
68634;BME280;55625;47.072;22.192;2022-09-27T10:07:45;98345.91;;;22.02;65.79
68634;BME280;55625;47.072;22.192;2022-09-27T10:10:14;98346.22;;;22.12;65.72
68634;BME280;55625;47.072;22.192;2022-09-27T10:12:42;98349.88;;;21.92;65.09
68634;BME280;55625;47.072;22.192;2022-09-27T10:15:18;98344.31;;;21.73;67.79
68634;BME280;55625;47.072;22.192;2022-09-27T10:17:49;98335.25;;;22.18;66.97
68634;BME280;55625;47.072;22.192;2022-09-27T10:20:45;98331.41;;;22.16;64.55
68634;BME280;55625;47.072;22.192;2022-09-27T10:23:17;98335.88;;;22.24;64.40
68634;BME280;55625;47.072;22.192;2022-09-27T10:28:39;98326.91;;;22.36;64.26
68634;BME280;55625;47.072;22.192;2022-09-27T10:31:15;98331.06;;;22.27;64.91
68634;BME280;55625;47.072;22.192;2022-09-27T10:33:58;98331.88;;;21.78;66.01
68634;BME280;55625;47.072;22.192;2022-09-27T10:36:29;98323.16;;;21.50;65.54
68634;BME280;55625;47.072;22.192;2022-09-27T10:38:58;98333.59;;;21.19;67.65
68634;BME280;55625;47.072;22.192;2022-09-27T10:41:37;98325.31;;;21.02;68.10
68634;BME280;55625;47.072;22.192;2022-09-27T10:46:49;98304.91;;;21.00;67.98
68634;BME280;55625;47.072;22.192;2022-09-27T10:49:28;98304.91;;;21.55;67.16
68634;BME280;55625;47.072;22.192;2022-09-27T10:52:04;98306.69;;;21.86;65.16
68634;BME280;55625;47.072;22.192;2022-09-27T10:54:40;98311.09;;;21.80;65.00
68634;BME280;55625;47.072;22.192;2022-09-27T10:59:41;98311.34;;;21.68;66.04
68634;BME280;55625;47.072;22.192;2022-09-27T11:02:35;98301.31;;;21.62;64.37
68634;BME280;55625;47.072;22.192;2022-09-27T11:05:28;98300.41;;;21.95;65.53
68634;BME280;55625;47.072;22.192;2022-09-27T11:07:56;98296.53;;;21.93;64.38
68634;BME280;55625;47.072;22.192;2022-09-27T11:10:30;98289.97;;;21.92;64.96
68634;BME280;55625;47.072;22.192;2022-09-27T11:13:18;98285.56;;;22.20;64.31
68634;BME280;55625;47.072;22.192;2022-09-27T11:21:36;98288.03;;;21.87;64.11
68634;BME280;55625;47.072;22.192;2022-09-27T11:24:33;98290.94;;;21.66;65.48
68634;BME280;55625;47.072;22.192;2022-09-27T11:30:14;98275.81;;;21.32;68.44
68634;BME280;55625;47.072;22.192;2022-09-27T11:36:19;98262.31;;;22.33;63.87
68634;BME280;55625;47.072;22.192;2022-09-27T11:48:53;98233.16;;;22.75;61.53
68634;BME280;55625;47.072;22.192;2022-09-27T11:51:51;98231.13;;;22.98;60.69
68634;BME280;55625;47.072;22.192;2022-09-27T11:55:53;98228.63;;;23.17;60.19
68634;BME280;55625;47.072;22.192;2022-09-27T12:00:51;98236.38;;;23.30;58.42
68634;BME280;55625;47.072;22.192;2022-09-27T12:09:13;98233.03;;;22.37;59.90
68634;BME280;55625;47.072;22.192;2022-09-27T12:11:53;98235.41;;;22.10;61.02
68634;BME280;55625;47.072;22.192;2022-09-27T12:14:38;98231.09;;;22.03;61.74
68634;BME280;55625;47.072;22.192;2022-09-27T12:17:13;98218.38;;;21.98;61.90
68634;BME280;55625;47.072;22.192;2022-09-27T12:19:45;98213.91;;;21.90;60.79
68634;BME280;55625;47.072;22.192;2022-09-27T12:22:32;98217.59;;;21.69;61.09
68634;BME280;55625;47.072;22.192;2022-09-27T12:24:59;98200.63;;;21.37;62.85
68634;BME280;55625;47.072;22.192;2022-09-27T12:27:43;98204.81;;;21.29;62.71
68634;BME280;55625;47.072;22.192;2022-09-27T12:30:12;98206.50;;;21.74;62.97
68634;BME280;55625;47.072;22.192;2022-09-27T12:32:54;98198.25;;;22.14;61.44
68634;BME280;55625;47.072;22.192;2022-09-27T12:35:27;98201.88;;;22.50;61.04
68634;BME280;55625;47.072;22.192;2022-09-27T12:40:35;98198.50;;;22.82;60.96
68634;BME280;55625;47.072;22.192;2022-09-27T12:43:18;98189.03;;;22.82;61.91
68634;BME280;55625;47.072;22.192;2022-09-27T12:49:30;98175.13;;;22.73;61.16
68634;BME280;55625;47.072;22.192;2022-09-27T12:52:04;98170.22;;;22.37;60.62
68634;BME280;55625;47.072;22.192;2022-09-27T12:55:00;98173.81;;;22.22;62.62
68634;BME280;55625;47.072;22.192;2022-09-27T13:00:55;98160.13;;;22.23;62.56
68634;BME280;55625;47.072;22.192;2022-09-27T13:06:13;98150.69;;;22.15;61.75
68634;BME280;55625;47.072;22.192;2022-09-27T13:09:17;98156.25;;;22.13;61.04
68634;BME280;55625;47.072;22.192;2022-09-27T13:12:21;98161.34;;;21.99;61.79
68634;BME280;55625;47.072;22.192;2022-09-27T13:22:53;98141.72;;;21.33;64.94
68634;BME280;55625;47.072;22.192;2022-09-27T13:26:00;98142.19;;;21.16;64.63
68634;BME280;55625;47.072;22.192;2022-09-27T13:31:10;98133.22;;;21.06;65.42
68634;BME280;55625;47.072;22.192;2022-09-27T13:33:46;98130.00;;;21.10;65.00
68634;BME280;55625;47.072;22.192;2022-09-27T13:36:29;98122.69;;;21.09;65.45
68634;BME280;55625;47.072;22.192;2022-09-27T13:39:15;98130.72;;;21.03;65.92
68634;BME280;55625;47.072;22.192;2022-09-27T13:44:20;98127.50;;;20.86;64.64
68634;BME280;55625;47.072;22.192;2022-09-27T13:47:28;98122.38;;;20.71;66.48
68634;BME280;55625;47.072;22.192;2022-09-27T13:50:26;98119.56;;;20.58;67.35
68634;BME280;55625;47.072;22.192;2022-09-27T13:55:50;98124.47;;;20.50;68.73
68634;BME280;55625;47.072;22.192;2022-09-27T13:58:33;98116.16;;;20.46;69.46
68634;BME280;55625;47.072;22.192;2022-09-27T14:01:17;98108.28;;;20.46;69.59
68634;BME280;55625;47.072;22.192;2022-09-27T14:06:58;98108.72;;;20.71;68.12
68634;BME280;55625;47.072;22.192;2022-09-27T14:09:30;98115.31;;;20.80;66.77
68634;BME280;55625;47.072;22.192;2022-09-27T14:12:07;98108.66;;;20.85;67.19
68634;BME280;55625;47.072;22.192;2022-09-27T14:14:35;98104.44;;;20.86;66.76
68634;BME280;55625;47.072;22.192;2022-09-27T14:17:06;98098.31;;;20.89;67.07
68634;BME280;55625;47.072;22.192;2022-09-27T14:19:32;98100.22;;;20.87;66.21
68634;BME280;55625;47.072;22.192;2022-09-27T14:22:03;98109.44;;;20.85;65.56
68634;BME280;55625;47.072;22.192;2022-09-27T14:24:41;98109.78;;;20.82;64.26
68634;BME280;55625;47.072;22.192;2022-09-27T14:27:29;98102.75;;;20.69;64.59
68634;BME280;55625;47.072;22.192;2022-09-27T14:30:09;98107.47;;;20.59;65.77
68634;BME280;55625;47.072;22.192;2022-09-27T14:32:51;98107.72;;;20.48;66.26
68634;BME280;55625;47.072;22.192;2022-09-27T14:35:21;98099.56;;;20.39;66.93
68634;BME280;55625;47.072;22.192;2022-09-27T14:38:13;98098.97;;;20.20;67.92
68634;BME280;55625;47.072;22.192;2022-09-27T14:40:43;98098.31;;;20.13;68.17
68634;BME280;55625;47.072;22.192;2022-09-27T14:43:16;98096.91;;;20.07;69.11
68634;BME280;55625;47.072;22.192;2022-09-27T14:45:44;98089.53;;;19.98;70.14
68634;BME280;55625;47.072;22.192;2022-09-27T14:51:01;98090.91;;;19.71;71.11
68634;BME280;55625;47.072;22.192;2022-09-27T14:53:53;98094.69;;;19.52;72.47
68634;BME280;55625;47.072;22.192;2022-09-27T14:59:14;98099.00;;;19.19;76.76
68634;BME280;55625;47.072;22.192;2022-09-27T15:01:50;98098.03;;;19.17;77.76
68634;BME280;55625;47.072;22.192;2022-09-27T15:04:19;98098.34;;;19.13;78.45
68634;BME280;55625;47.072;22.192;2022-09-27T15:06:47;98103.56;;;19.15;79.00
68634;BME280;55625;47.072;22.192;2022-09-27T15:09:15;98105.97;;;19.11;79.36
68634;BME280;55625;47.072;22.192;2022-09-27T15:11:43;98116.38;;;19.01;79.33
68634;BME280;55625;47.072;22.192;2022-09-27T15:14:16;98124.19;;;18.87;79.77
68634;BME280;55625;47.072;22.192;2022-09-27T15:16:46;98131.16;;;18.78;80.69
68634;BME280;55625;47.072;22.192;2022-09-27T15:19:28;98126.59;;;18.70;80.86
68634;BME280;55625;47.072;22.192;2022-09-27T15:21:55;98127.44;;;18.65;80.68
68634;BME280;55625;47.072;22.192;2022-09-27T15:24:44;98131.59;;;18.50;80.67
68634;BME280;55625;47.072;22.192;2022-09-27T15:27:21;98135.19;;;18.38;79.95
68634;BME280;55625;47.072;22.192;2022-09-27T15:29:53;98132.34;;;18.19;81.22
68634;BME280;55625;47.072;22.192;2022-09-27T15:32:22;98118.94;;;18.08;81.52
68634;BME280;55625;47.072;22.192;2022-09-27T15:34:49;98125.91;;;17.94;80.96
68634;BME280;55625;47.072;22.192;2022-09-27T15:37:37;98128.09;;;17.88;79.82
68634;BME280;55625;47.072;22.192;2022-09-27T15:42:59;98134.28;;;17.73;80.47
68634;BME280;55625;47.072;22.192;2022-09-27T15:45:30;98126.56;;;17.62;80.84
68634;BME280;55625;47.072;22.192;2022-09-27T15:48:19;98116.34;;;17.48;81.33
68634;BME280;55625;47.072;22.192;2022-09-27T15:50:46;98114.06;;;17.41;81.85
68634;BME280;55625;47.072;22.192;2022-09-27T15:56:03;98101.78;;;17.22;81.83